Time;durP1;ratioP1;P1;durP2;ratioP2;P2;SDS_P1;SDS_P2;PMS_P1;PMS_P2;Temp;Humidity;BMP_temperature;BMP_pressure;BME280_temperature;BME280_humidity;BME280_pressure;Samples;Min_cycle;Max_cycle;Signal;HPM_P1;HPM_P2
2022/06/13 00:01:23;;;;;;;6.50;3.10;;;21.20;99.90;;;;;;5011186;28;20037;-46
2022/06/13 00:03:50;;;;;;;3.45;2.83;;;21.20;99.90;;;;;;5010785;28;20045;-46
2022/06/13 00:06:17;;;;;;;4.07;2.83;;;21.20;99.90;;;;;;5011117;28;20034;-45
2022/06/13 00:08:43;;;;;;;5.97;3.10;;;21.20;99.90;;;;;;4978135;28;20150;-45
2022/06/13 00:11:13;;;;;;;4.68;3.42;;;21.20;99.90;;;;;;5010873;28;20033;-46
2022/06/13 00:13:41;;;;;;;6.53;2.90;;;21.20;99.90;;;;;;5010739;28;20038;-46
2022/06/13 00:16:08;;;;;;;4.88;2.72;;;21.20;99.90;;;;;;5011818;28;20065;-46
2022/06/13 00:18:34;;;;;;;2.67;2.40;;;21.10;99.90;;;;;;5014512;28;20038;-47
2022/06/13 00:21:00;;;;;;;4.32;2.40;;;21.10;99.90;;;;;;5014414;28;20037;-46
2022/06/13 00:23:26;;;;;;;4.00;2.80;;;21.20;99.90;;;;;;5014404;28;20597;-46
2022/06/13 00:25:52;;;;;;;4.88;2.30;;;21.10;99.90;;;;;;4998857;28;20121;-46
2022/06/13 00:28:18;;;;;;;3.25;2.00;;;21.20;99.90;;;;;;5011374;28;20504;-46
2022/06/13 00:30:43;;;;;;;5.10;2.35;;;21.10;99.90;;;;;;4996736;28;20110;-46
2022/06/13 00:33:09;;;;;;;3.95;2.40;;;21.20;99.90;;;;;;4996601;28;20399;-46
2022/06/13 00:35:35;;;;;;;3.00;2.33;;;21.20;99.90;;;;;;4994821;28;20467;-47
2022/06/13 00:38:01;;;;;;;5.00;2.78;;;21.20;99.90;;;;;;5011109;28;20038;-46
2022/06/13 00:40:26;;;;;;;3.42;2.55;;;21.20;99.90;;;;;;4996617;28;20034;-45
2022/06/13 00:42:52;;;;;;;3.38;2.20;;;21.20;99.90;;;;;;4996453;28;20038;-46
2022/06/13 00:45:25;;;;;;;5.57;2.70;;;21.20;99.90;;;;;;4996671;28;20058;-46
2022/06/13 00:47:53;;;;;;;4.00;2.28;;;21.10;99.90;;;;;;4996929;28;20035;-46
2022/06/13 00:50:33;;;;;;;4.50;2.50;;;21.10;99.90;;;;;;4996601;28;20491;-46
2022/06/13 00:53:07;;;;;;;3.22;2.33;;;21.20;99.90;;;;;;5013673;28;20425;-45
2022/06/13 00:55:56;;;;;;;6.22;2.20;;;21.20;99.90;;;;;;5013797;28;20636;-46
2022/06/13 00:58:25;;;;;;;5.00;2.10;;;21.10;99.90;;;;;;4955382;29;20419;-46
2022/06/13 01:00:54;;;;;;;4.45;2.45;;;21.10;99.90;;;;;;4955232;29;20140;-46
2022/06/13 01:03:22;;;;;;;3.83;2.15;;;21.20;99.90;;;;;;4955123;29;20055;-46
2022/06/13 01:05:51;;;;;;;4.43;2.45;;;21.10;99.90;;;;;;4955229;29;20034;-46
2022/06/13 01:08:20;;;;;;;2.95;2.30;;;21.00;99.90;;;;;;4955301;29;20440;-46
2022/06/13 01:14:11;;;;;;;6.10;2.47;;;21.00;99.90;;;;;;4955437;29;20042;-46
2022/06/13 01:16:54;;;;;;;4.38;2.70;;;20.80;99.90;;;;;;4955176;29;20042;-46
2022/06/13 01:19:40;;;;;;;3.70;2.70;;;20.80;99.90;;;;;;4954953;29;20039;-46
2022/06/13 01:22:34;;;;;;;3.65;2.70;;;20.80;99.90;;;;;;4955082;29;20034;-46
2022/06/13 01:25:30;;;;;;;3.53;2.45;;;20.80;99.90;;;;;;4954677;29;20205;-46
2022/06/13 01:28:04;;;;;;;3.58;2.60;;;20.70;99.90;;;;;;4954722;28;20098;-46
2022/06/13 01:30:51;;;;;;;6.63;2.65;;;20.70;99.90;;;;;;4995271;28;20031;-46
2022/06/13 01:33:49;;;;;;;3.88;2.38;;;20.70;99.90;;;;;;4995382;28;20498;-46
2022/06/13 01:36:30;;;;;;;3.63;2.40;;;20.60;99.90;;;;;;4995473;28;20026;-46
2022/06/13 01:39:23;;;;;;;4.28;2.40;;;20.50;99.90;;;;;;4995663;28;20030;-46
2022/06/13 01:42:16;;;;;;;5.85;2.60;;;20.50;99.90;;;;;;4995378;28;20092;-46
2022/06/13 01:45:10;;;;;;;4.93;2.85;;;20.40;99.90;;;;;;4993973;28;20046;-46
2022/06/13 01:48:00;;;;;;;4.18;2.67;;;20.40;99.90;;;;;;5009861;28;20125;-46
2022/06/13 01:50:32;;;;;;;4.03;2.95;;;20.30;99.90;;;;;;4995700;28;20026;-46
2022/06/13 01:53:08;;;;;;;4.53;2.85;;;20.20;99.90;;;;;;4995154;28;20137;-46
2022/06/13 01:55:45;;;;;;;2.40;2.20;;;20.20;99.90;;;;;;4995207;28;20505;-46
2022/06/13 01:58:23;;;;;;;3.30;2.80;;;20.10;99.90;;;;;;5009684;28;20042;-46
2022/06/13 02:00:57;;;;;;;3.33;2.80;;;20.00;99.90;;;;;;4995317;28;20382;-46
2022/06/13 02:03:32;;;;;;;4.38;2.72;;;20.00;99.90;;;;;;5009442;28;20057;-46
2022/06/13 02:06:27;;;;;;;4.07;2.92;;;20.00;99.90;;;;;;4994963;28;20390;-46
2022/06/13 02:08:57;;;;;;;6.05;3.15;;;20.00;99.90;;;;;;4994084;28;20038;-46
2022/06/13 02:11:40;;;;;;;5.20;2.60;;;20.00;99.90;;;;;;4994771;28;20035;-46
2022/06/13 02:14:08;;;;;;;4.47;2.60;;;20.00;99.90;;;;;;4995336;28;20030;-46
2022/06/13 02:16:51;;;;;;;3.78;2.38;;;20.00;99.90;;;;;;4994933;28;20029;-46
2022/06/13 02:19:50;;;;;;;5.13;2.85;;;19.90;99.90;;;;;;4994928;28;20084;-46
2022/06/13 02:22:35;;;;;;;2.83;2.50;;;19.80;99.90;;;;;;4994882;28;20030;-46
2022/06/13 02:25:16;;;;;;;3.90;2.40;;;19.80;99.90;;;;;;5009072;28;20054;-46
2022/06/13 02:27:47;;;;;;;3.58;2.22;;;19.80;99.90;;;;;;4994614;28;20038;-46
2022/06/13 02:30:18;;;;;;;3.47;2.47;;;19.80;99.90;;;;;;4994472;28;20042;-46
2022/06/13 02:32:48;;;;;;;5.30;3.13;;;19.70;99.90;;;;;;4994303;28;20410;-46
2022/06/13 02:35:29;;;;;;;4.13;2.53;;;19.70;99.90;;;;;;4994725;28;20023;-46
2022/06/13 02:38:11;;;;;;;4.00;2.63;;;19.70;99.90;;;;;;4960577;28;20057;-46
2022/06/13 02:40:46;;;;;;;3.33;2.50;;;19.70;99.90;;;;;;4994117;28;20026;-46
2022/06/13 02:43:27;;;;;;;4.75;2.65;;;19.60;99.90;;;;;;4994296;28;20687;-46
2022/06/13 02:46:22;;;;;;;3.92;2.50;;;19.60;99.90;;;;;;4994440;28;20022;-47
2022/06/13 02:49:21;;;;;;;3.53;2.85;;;19.60;99.90;;;;;;4994319;28;20042;-46
2022/06/13 02:51:52;;;;;;;4.18;3.05;;;19.60;99.90;;;;;;4993605;28;20101;-46
2022/06/13 02:54:29;;;;;;;3.63;2.75;;;19.60;99.90;;;;;;4994213;28;20117;-46
2022/06/13 02:57:24;;;;;;;3.65;2.67;;;19.50;99.90;;;;;;4994468;28;20041;-46
2022/06/13 03:00:20;;;;;;;3.75;2.38;;;19.50;99.90;;;;;;4994105;28;20031;-47
2022/06/13 03:03:17;;;;;;;4.03;2.72;;;19.60;99.90;;;;;;4993998;28;20474;-46
2022/06/13 03:05:51;;;;;;;6.15;3.22;;;19.50;99.90;;;;;;4994085;28;20030;-46
2022/06/13 03:08:23;;;;;;;4.78;2.58;;;19.50;99.90;;;;;;4994497;28;20493;-46
2022/06/13 03:11:06;;;;;;;4.75;2.70;;;19.50;99.90;;;;;;4993965;28;20105;-46
2022/06/13 03:13:47;;;;;;;5.07;2.60;;;19.50;99.90;;;;;;4994551;28;20379;-46
2022/06/13 03:16:40;;;;;;;5.90;2.83;;;19.50;99.90;;;;;;4993862;28;20034;-46
2022/06/13 03:19:49;;;;;;;4.68;3.03;;;19.50;99.90;;;;;;4994019;28;20027;-46
2022/06/13 03:22:45;;;;;;;4.00;2.65;;;19.50;99.90;;;;;;4933792;29;20538;-45
2022/06/13 03:25:35;;;;;;;4.00;2.70;;;19.50;99.90;;;;;;4896281;29;20421;-46
2022/06/13 03:28:23;;;;;;;4.75;2.88;;;19.50;99.90;;;;;;4895990;29;20138;-46
2022/06/13 03:31:12;;;;;;;4.88;2.83;;;19.50;99.90;;;;;;4858930;29;20402;-46
2022/06/13 03:33:41;;;;;;;3.75;2.80;;;19.50;99.90;;;;;;4858507;29;20049;-46
2022/06/13 03:36:12;;;;;;;4.25;2.58;;;19.50;99.90;;;;;;4874185;29;20053;-46
2022/06/13 03:38:50;;;;;;;3.22;2.42;;;19.50;99.90;;;;;;4858863;29;20089;-45
2022/06/13 03:41:21;;;;;;;3.17;2.30;;;19.60;99.90;;;;;;4858812;29;20050;-46
2022/06/13 03:43:53;;;;;;;3.50;2.55;;;19.60;99.90;;;;;;4874095;29;20572;-45
2022/06/13 03:46:47;;;;;;;5.07;2.78;;;19.60;99.90;;;;;;4874142;29;20101;-45
2022/06/13 03:49:37;;;;;;;5.25;2.45;;;19.70;99.90;;;;;;4866887;29;20081;-45
2022/06/13 03:52:07;;;;;;;3.33;2.50;;;19.70;99.90;;;;;;4860873;29;20038;-46
2022/06/13 03:54:39;;;;;;;3.35;2.22;;;19.70;99.90;;;;;;4862321;29;20045;-46
2022/06/13 03:57:14;;;;;;;;;;;19.70;99.90;;;;;;4862890;29;20037;-46
2022/06/13 03:59:49;;;;;;;5.28;2.83;;;19.80;99.90;;;;;;4870518;29;19911;-45
2022/06/13 04:02:19;;;;;;;2.40;2.03;;;19.80;99.90;;;;;;4900453;29;20048;-46
2022/06/13 04:04:48;;;;;;;4.00;2.92;;;19.80;99.90;;;;;;4902352;29;20056;-46
2022/06/13 04:07:15;;;;;;;3.58;2.95;;;19.90;99.90;;;;;;4927795;28;20043;-46
2022/06/13 04:10:08;;;;;;;3.78;2.40;;;19.90;99.90;;;;;;4975940;28;20037;-46
2022/06/13 04:12:52;;;;;;;3.50;2.67;;;20.00;99.90;;;;;;4944079;28;20039;-46
2022/06/13 04:15:39;;;;;;;5.57;2.55;;;20.10;99.90;;;;;;4973039;28;20442;-46
2022/06/13 04:18:19;;;;;;;4.38;3.05;;;20.10;99.90;;;;;;4973966;28;20047;-47
2022/06/13 04:21:20;;;;;;;3.45;2.53;;;20.20;99.90;;;;;;4975572;28;20432;-46
2022/06/13 04:23:53;;;;;;;3.92;2.55;;;20.20;99.90;;;;;;4975436;28;20479;-46
2022/06/13 04:26:42;;;;;;;2.65;2.15;;;20.30;99.90;;;;;;4988785;28;20409;-46
2022/06/13 04:29:15;;;;;;;4.80;2.72;;;20.30;99.90;;;;;;4996889;28;20394;-46
2022/06/13 04:31:41;;;;;;;4.95;2.63;;;20.40;99.90;;;;;;4996592;28;20088;-46
2022/06/13 04:34:30;;;;;;;3.58;2.33;;;20.40;99.90;;;;;;4994873;28;20067;-47
2022/06/13 04:36:57;;;;;;;3.45;2.40;;;20.50;99.90;;;;;;4991969;28;20038;-46
2022/06/13 04:39:28;;;;;;;6.75;2.35;;;20.60;99.90;;;;;;4995575;28;20113;-46
2022/06/13 04:41:58;;;;;;;5.57;2.40;;;20.70;99.90;;;;;;4995878;28;20030;-46
2022/06/13 04:44:27;;;;;;;4.63;2.63;;;20.80;99.90;;;;;;4995606;28;20492;-47
2022/06/13 04:46:55;;;;;;;4.55;2.25;;;20.80;99.90;;;;;;4995787;28;20064;-46
2022/06/13 04:49:40;;;;;;;4.55;2.30;;;20.90;99.90;;;;;;4994498;28;20076;-46
2022/06/13 04:52:13;;;;;;;5.88;2.22;;;21.00;99.90;;;;;;4993152;28;20036;-46
2022/06/13 04:54:47;;;;;;;3.38;2.40;;;21.00;99.90;;;;;;5009837;28;20046;-46
2022/06/13 04:57:16;;;;;;;3.92;2.47;;;21.10;99.90;;;;;;4993512;28;20481;-45
2022/06/13 04:59:43;;;;;;;3.45;2.53;;;21.20;99.90;;;;;;4995196;28;20451;-46
2022/06/13 05:02:15;;;;;;;3.55;2.50;;;21.30;99.90;;;;;;4994870;28;20490;-46
2022/06/13 05:04:41;;;;;;;4.78;2.47;;;21.40;99.90;;;;;;4994032;28;20128;-46
2022/06/13 05:07:21;;;;;;;5.28;2.40;;;21.50;99.90;;;;;;4976699;28;20038;-46
2022/06/13 05:10:00;;;;;;;4.45;2.10;;;21.60;99.90;;;;;;4993703;28;20038;-46
2022/06/13 05:12:31;;;;;;;5.28;2.22;;;21.60;99.90;;;;;;4994063;28;20502;-46
2022/06/13 05:15:14;;;;;;;4.13;2.35;;;21.70;99.90;;;;;;4994141;28;20042;-46
2022/06/13 05:18:10;;;;;;;4.38;2.40;;;21.70;99.90;;;;;;4993821;28;20520;-46
2022/06/13 05:20:54;;;;;;;4.32;2.60;;;21.80;99.90;;;;;;4993892;28;20042;-46
2022/06/13 05:23:53;;;;;;;5.72;2.20;;;21.80;99.90;;;;;;4993773;28;20077;-46
2022/06/13 05:26:21;;;;;;;3.53;2.53;;;21.80;99.90;;;;;;4993680;28;20049;-46
2022/06/13 05:28:46;;;;;;;3.42;2.80;;;21.80;99.90;;;;;;4993768;28;20042;-46
2022/06/13 05:31:18;;;;;;;5.18;2.60;;;21.90;99.90;;;;;;4992714;28;20049;-46
2022/06/13 05:33:46;;;;;;;3.50;2.25;;;21.90;99.90;;;;;;4994399;28;20501;-46
2022/06/13 05:36:16;;;;;;;4.88;2.88;;;21.90;99.90;;;;;;5011942;28;20561;-46
2022/06/13 05:38:51;;;;;;;3.50;2.55;;;22.10;99.90;;;;;;5002205;28;20022;-46
2022/06/13 05:41:17;;;;;;;4.32;2.40;;;22.10;99.90;;;;;;5000848;28;20030;-47
2022/06/13 05:43:43;;;;;;;6.57;2.88;;;22.10;99.90;;;;;;5010158;28;20394;-46
2022/06/13 05:46:17;;;;;;;5.78;3.00;;;22.10;99.90;;;;;;4995430;28;20109;-48
2022/06/13 05:48:43;;;;;;;6.25;2.67;;;22.30;99.90;;;;;;4991848;28;20380;-51
2022/06/13 05:51:08;;;;;;;5.30;2.90;;;22.40;99.90;;;;;;4996296;28;20088;-48
2022/06/13 05:53:34;;;;;;;3.28;2.47;;;22.60;99.90;;;;;;4996005;28;20030;-48
2022/06/13 05:56:02;;;;;;;4.07;2.80;;;22.50;99.90;;;;;;5009806;28;20057;-47
2022/06/13 05:58:28;;;;;;;5.95;3.08;;;22.60;99.90;;;;;;4993013;28;20434;-47
2022/06/13 06:01:01;;;;;;;3.65;2.72;;;22.70;99.90;;;;;;4995052;28;20029;-49
2022/06/13 06:03:27;;;;;;;5.15;2.78;;;22.70;99.90;;;;;;4996240;28;20359;-46
2022/06/13 06:05:54;;;;;;;3.97;2.70;;;22.80;99.90;;;;;;5002338;28;20069;-45
2022/06/13 06:08:23;;;;;;;3.97;2.75;;;22.80;99.90;;;;;;4994841;28;20030;-47
2022/06/13 06:10:51;;;;;;;4.38;2.83;;;22.90;99.90;;;;;;4993923;28;20061;-45
2022/06/13 06:13:18;;;;;;;3.97;2.75;;;23.10;99.90;;;;;;4995078;28;20038;-45
2022/06/13 06:15:46;;;;;;;4.78;2.60;;;23.30;99.90;;;;;;4994447;28;20022;-47
2022/06/13 06:18:13;;;;;;;3.35;2.58;;;23.30;99.90;;;;;;4995202;28;20042;-46
2022/06/13 06:20:39;;;;;;;5.40;3.33;;;23.40;99.90;;;;;;4994616;28;20038;-46
2022/06/13 06:23:05;;;;;;;5.90;2.80;;;23.40;99.90;;;;;;4994710;28;20481;-46
2022/06/13 06:25:32;;;;;;;3.60;3.20;;;23.50;99.90;;;;;;4995061;28;20160;-45
2022/06/13 06:27:58;;;;;;;5.22;2.65;;;23.60;99.90;;;;;;4995023;28;20034;-47
2022/06/13 06:30:27;;;;;;;3.38;2.53;;;23.70;99.90;;;;;;4995067;28;20517;-47
2022/06/13 06:32:54;;;;;;;5.15;2.78;;;23.70;99.90;;;;;;5012114;28;20466;-46
2022/06/13 06:35:21;;;;;;;5.72;2.70;;;24.00;99.90;;;;;;4964123;28;20081;-46
2022/06/13 06:37:48;;;;;;;7.15;2.88;;;23.80;99.90;;;;;;5012453;28;20096;-45
2022/06/13 06:40:16;;;;;;;3.45;2.40;;;24.10;99.90;;;;;;5012068;28;20033;-47
2022/06/13 06:42:42;;;;;;;4.32;2.80;;;;;;;;;;5011972;28;20037;-45
2022/06/13 06:45:09;;;;;;;4.22;2.60;;;24.50;99.90;;;;;;5012206;28;20045;-47
2022/06/13 06:47:41;;;;;;;5.45;2.53;;;;;;;;;;4963987;28;20451;-46
2022/06/13 06:50:13;;;;;;;3.90;2.42;;;;;;;;;;5012173;28;20044;-46
2022/06/13 06:52:39;;;;;;;6.63;2.53;;;;;;;;;;5011672;28;20482;-45
2022/06/13 07:00:36;;;;;;;3.83;2.30;;;25.20;99.90;;;;;;5012028;28;20044;-46
2022/06/13 07:03:01;;;;;;;4.10;2.50;;;25.20;99.90;;;;;;5008562;28;20058;-46
2022/06/13 07:05:27;;;;;;;3.90;2.20;;;25.20;99.90;;;;;;4994479;28;20130;-46
2022/06/13 07:07:53;;;;;;;4.85;2.20;;;25.20;99.90;;;;;;4994296;28;20038;-47
2022/06/13 07:10:19;;;;;;;4.03;2.60;;;;;;;;;;5008748;28;20475;-45
2022/06/13 07:12:45;;;;;;;5.75;2.88;;;25.70;99.90;;;;;;5008938;28;20038;-45
2022/06/13 07:15:13;;;;;;;5.38;2.60;;;25.80;99.90;;;;;;5008982;28;20050;-45
2022/06/13 07:17:40;;;;;;;5.93;2.38;;;25.90;99.90;;;;;;4994372;28;20035;-47
2022/06/13 07:20:06;;;;;;;4.60;2.60;;;;;;;;;;5008669;28;20125;-46
2022/06/13 07:22:32;;;;;;;3.40;2.40;;;26.00;99.90;;;;;;5006991;28;20038;-45
2022/06/13 07:24:58;;;;;;;5.97;3.20;;;26.30;99.90;;;;;;4960994;28;20124;-45
2022/06/13 07:27:24;;;;;;;3.58;2.33;;;26.60;99.90;;;;;;5000689;28;20096;-45
2022/06/13 07:29:50;;;;;;;4.63;2.88;;;26.70;99.90;;;;;;5015010;28;20074;-47
2022/06/13 07:32:16;;;;;;;2.63;2.30;;;;;;;;;;5000920;28;20050;-47
2022/06/13 07:34:44;;;;;;;4.57;2.30;;;26.80;99.90;;;;;;5000492;28;20040;-46
2022/06/13 07:37:14;;;;;;;3.70;2.40;;;27.00;99.90;;;;;;5000666;28;20074;-45
2022/06/13 07:39:40;;;;;;;3.10;2.50;;;27.20;99.90;;;;;;5001011;28;20049;-45
2022/06/13 07:42:06;;;;;;;3.35;2.03;;;27.40;99.90;;;;;;5015212;28;20038;-46
2022/06/13 07:44:36;;;;;;;5.95;2.15;;;27.30;99.90;;;;;;5000196;28;20066;-47
2022/06/13 07:47:02;;;;;;;4.05;2.00;;;27.40;99.90;;;;;;5001033;28;20030;-45
2022/06/13 07:49:28;;;;;;;4.30;2.38;;;27.50;99.90;;;;;;5000467;28;20435;-45
2022/06/13 07:51:54;;;;;;;3.33;2.17;;;;;;;;;;5014729;28;20096;-46
2022/06/13 07:54:21;;;;;;;5.05;2.60;;;;;;;;;;5000165;28;20041;-45
2022/06/13 07:56:47;;;;;;;4.07;2.20;;;;;;;;;;5000880;28;20041;-45
2022/06/13 07:59:29;;;;;;;4.60;2.30;;;28.10;99.90;;;;;;5000474;28;20034;-45
2022/06/13 08:01:57;;;;;;;2.90;2.17;;;28.30;99.90;;;;;;5000202;28;20049;-47
2022/06/13 08:04:22;;;;;;;7.88;2.35;;;28.40;99.90;;;;;;5000359;28;20096;-46
2022/06/13 08:06:48;;;;;;;6.40;2.67;;;;;;;;;;4999991;28;20433;-46
2022/06/13 08:09:14;;;;;;;3.80;2.40;;;28.70;99.90;;;;;;5000606;28;20034;-45
2022/06/13 08:11:44;;;;;;;2.80;1.88;;;;;;;;;;5000415;28;20030;-47
2022/06/13 08:14:11;;;;;;;2.60;1.67;;;;;;;;;;5000546;28;20168;-46
2022/06/13 08:16:36;;;;;;;3.53;1.90;;;28.60;99.90;;;;;;5000354;28;20027;-47
2022/06/13 08:19:04;;;;;;;4.15;2.25;;;28.60;99.90;;;;;;4999972;28;20114;-45
2022/06/13 08:21:30;;;;;;;3.03;2.00;;;;;;;;;;4998625;28;20052;-47
2022/06/13 08:23:56;;;;;;;3.80;1.85;;;;;;;;;;5000056;28;20548;-47
2022/06/13 08:26:22;;;;;;;5.53;1.98;;;29.00;99.90;;;;;;4998874;28;20401;-46
2022/06/13 08:28:48;;;;;;;2.95;1.77;;;29.10;99.90;;;;;;5014720;28;20474;-45
2022/06/13 08:31:20;;;;;;;7.63;2.25;;;28.50;99.90;;;;;;5000091;28;20057;-45
2022/06/13 08:33:46;;;;;;;3.75;2.42;;;28.80;99.90;;;;;;4999772;28;20046;-45
2022/06/13 08:36:12;;;;;;;2.80;2.00;;;29.10;99.90;;;;;;4999944;28;20030;-45
2022/06/13 08:38:38;;;;;;;3.90;2.13;;;29.10;99.90;;;;;;4996821;28;20057;-45
2022/06/13 08:41:10;;;;;;;4.18;2.00;;;29.70;99.90;;;;;;5011422;28;20445;-46
2022/06/13 08:43:48;;;;;;;;;;;29.40;99.90;;;;;;4997785;28;20188;-46
2022/06/13 08:46:21;;;;;;;4.85;2.35;;;29.40;99.90;;;;;;4996350;28;19917;-46
2022/06/13 08:48:50;;;;;;;2.10;1.90;;;29.20;99.90;;;;;;4995510;28;20494;-45
2022/06/13 08:51:47;;;;;;;2.88;2.17;;;29.40;99.90;;;;;;5011447;28;20045;-45
2022/06/13 08:54:21;;;;;;;4.53;2.03;;;29.50;99.90;;;;;;4975092;28;20113;-45
2022/06/13 08:56:49;;;;;;;3.90;2.10;;;;;;;;;;4956098;28;20062;-47
2022/06/13 08:59:43;;;;;;;3.20;2.03;;;30.30;99.90;;;;;;4974914;28;20125;-46
2022/06/13 09:02:15;;;;;;;4.35;2.28;;;30.20;99.90;;;;;;4974702;28;20039;-47
2022/06/13 09:05:08;;;;;;;3.78;2.13;;;30.50;99.90;;;;;;4975078;28;20102;-46
2022/06/13 09:07:40;;;;;;;6.00;2.10;;;;;;;;;;4958994;28;20419;-46
2022/06/13 09:10:12;;;;;;;4.20;2.40;;;;;;;;;;4974737;28;20039;-44
2022/06/13 09:12:48;;;;;;;4.15;2.05;;;;;;;;;;4974812;28;20074;-47
2022/06/13 09:15:18;;;;;;;2.20;2.00;;;30.50;99.90;;;;;;4974778;28;20039;-46
2022/06/13 09:17:49;;;;;;;3.45;2.00;;;30.60;99.90;;;;;;4972000;28;20103;-46
2022/06/13 09:20:20;;;;;;;4.07;2.45;;;30.50;99.90;;;;;;4974890;28;20031;-47
2022/06/13 09:23:06;;;;;;;5.30;2.22;;;30.60;99.90;;;;;;4958308;28;20097;-48
2022/06/13 09:25:45;;;;;;;5.90;1.95;;;30.50;99.90;;;;;;4974010;28;20058;-45
2022/06/13 09:28:28;;;;;;;5.47;2.13;;;30.70;99.90;;;;;;4974315;28;20483;-45
2022/06/13 09:31:08;;;;;;;2.90;2.00;;;31.00;99.90;;;;;;4983033;28;20513;-47
2022/06/13 09:33:40;;;;;;;4.18;2.92;;;31.00;99.90;;;;;;4995917;28;20077;-47
2022/06/13 09:36:16;;;;;;;4.75;2.17;;;31.00;99.90;;;;;;4996213;28;20026;-45
2022/06/13 09:38:57;;;;;;;3.90;2.50;;;31.20;99.90;;;;;;4995712;28;20030;-47
2022/06/13 09:41:31;;;;;;;3.08;1.95;;;31.10;99.40;;;;;;4995685;28;20041;-46
2022/06/13 09:44:06;;;;;;;4.35;2.13;;;31.20;99.70;;;;;;4995625;28;20030;-45
2022/06/13 09:46:40;;;;;;;6.70;2.45;;;;;;;;;;4994279;28;20034;-46
2022/06/13 09:49:36;;;;;;;4.65;2.08;;;31.50;99.90;;;;;;4994174;28;20118;-45
2022/06/13 09:52:21;;;;;;;3.33;1.73;;;31.40;99.90;;;;;;4994653;28;20037;-45
2022/06/13 09:54:50;;;;;;;5.07;2.10;;;31.40;99.90;;;;;;4995859;28;20433;-45
2022/06/13 09:57:48;;;;;;;3.63;2.20;;;31.60;98.70;;;;;;4995772;28;20026;-46
2022/06/13 10:00:21;;;;;;;7.03;2.42;;;;;;;;;;4979655;28;20125;-46
2022/06/13 10:03:21;;;;;;;4.07;2.17;;;31.90;98.30;;;;;;4995108;28;20030;-47
2022/06/13 10:06:15;;;;;;;3.75;2.20;;;32.10;97.50;;;;;;4954753;29;20047;-45
2022/06/13 10:08:52;;;;;;;2.35;2.15;;;32.20;97.80;;;;;;4916180;29;20055;-46
2022/06/13 10:11:32;;;;;;;2.80;2.33;;;32.30;96.40;;;;;;4884921;29;20040;-45
2022/06/13 10:14:08;;;;;;;4.38;2.15;;;;;;;;;;4916022;29;20080;-47
2022/06/13 10:17:09;;;;;;;4.40;2.30;;;32.70;96.30;;;;;;4916228;29;20099;-47
2022/06/13 10:19:49;;;;;;;3.50;2.30;;;32.90;97.10;;;;;;4916195;29;20051;-46
2022/06/13 10:22:18;;;;;;;4.47;2.13;;;;;;;;;;4915875;29;20070;-46
2022/06/13 10:24:56;;;;;;;2.83;2.50;;;32.90;95.90;;;;;;4915987;29;20091;-47
2022/06/13 10:27:40;;;;;;;6.65;2.10;;;33.20;97.40;;;;;;4916257;29;20036;-46
2022/06/13 10:30:32;;;;;;;2.45;1.90;;;33.70;95.70;;;;;;4916112;29;20036;-46
2022/06/13 10:33:10;;;;;;;5.47;2.25;;;33.70;97.00;;;;;;4915487;29;20180;-47
2022/06/13 10:35:58;;;;;;;3.30;1.90;;;33.70;94.00;;;;;;4915408;29;20044;-46
2022/06/13 10:38:32;;;;;;;2.22;1.90;;;34.10;93.20;;;;;;4915796;29;20040;-46
2022/06/13 10:40:58;;;;;;;3.92;1.70;;;34.00;92.20;;;;;;4927528;28;20198;-46
2022/06/13 10:43:25;;;;;;;2.40;2.20;;;33.90;91.70;;;;;;4958185;28;20388;-47
2022/06/13 10:45:50;;;;;;;2.13;1.90;;;34.50;93.60;;;;;;4987651;28;20119;-47
2022/06/13 10:48:24;;;;;;;4.30;1.80;;;35.00;92.90;;;;;;5014010;28;20054;-48
2022/06/13 10:50:59;;;;;;;7.85;2.00;;;35.40;90.90;;;;;;5004599;28;20411;-46
2022/06/13 10:53:37;;;;;;;2.42;1.75;;;35.50;90.00;;;;;;4990028;28;20034;-46
2022/06/13 10:56:05;;;;;;;7.13;2.17;;;;;;;;;;5004886;28;20037;-50
2022/06/13 10:58:41;;;;;;;3.15;1.80;;;;;;;;;;5008376;28;20540;-49
2022/06/13 11:01:11;;;;;;;2.05;1.77;;;35.30;89.80;;;;;;4993819;28;20045;-48
2022/06/13 11:03:42;;;;;;;5.28;2.13;;;35.60;90.60;;;;;;4996226;28;20041;-51
2022/06/13 11:06:19;;;;;;;2.97;1.90;;;35.40;88.60;;;;;;5001688;28;20200;-47
2022/06/13 11:08:45;;;;;;;2.67;1.73;;;;;;;;;;4999599;28;20030;-51
2022/06/13 11:11:15;;;;;;;6.00;1.80;;;35.60;88.20;;;;;;4996338;28;20052;-51
2022/06/13 11:13:43;;;;;;;3.20;2.15;;;35.60;87.40;;;;;;5000274;28;20022;-47
2022/06/13 11:22:38;;;;;;;3.92;2.13;;;35.70;88.10;;;;;;4999126;28;20537;-45
2022/06/13 11:25:15;;;;;;;2.47;2.10;;;35.50;87.50;;;;;;5009306;28;20141;-47
2022/06/13 11:27:41;;;;;;;2.17;1.90;;;35.20;89.50;;;;;;4988359;28;20161;-45
2022/06/13 11:30:25;;;;;;;2.67;1.90;;;35.50;88.50;;;;;;4985699;28;20038;-48
2022/06/13 11:33:10;;;;;;;3.17;1.80;;;34.60;86.00;;;;;;4989049;28;20125;-49
2022/06/13 11:35:36;;;;;;;2.00;1.80;;;34.70;86.70;;;;;;4991947;28;20030;-46
2022/06/13 11:38:29;;;;;;;3.20;2.00;;;35.00;85.50;;;;;;4993304;28;20088;-46
2022/06/13 11:41:01;;;;;;;7.22;2.00;;;35.70;83.90;;;;;;4986382;28;20057;-52
2022/06/13 11:43:44;;;;;;;3.65;2.20;;;36.00;86.20;;;;;;4991226;28;20116;-48
2022/06/13 11:46:42;;;;;;;3.92;1.90;;;36.00;84.50;;;;;;4959347;28;20108;-52
2022/06/13 11:49:14;;;;;;;3.30;2.10;;;36.40;84.60;;;;;;4987017;28;20071;-51
2022/06/13 11:51:51;;;;;;;2.70;1.90;;;36.30;82.90;;;;;;4986342;28;20031;-52
2022/06/13 11:54:26;;;;;;;2.83;2.10;;;36.90;85.20;;;;;;4991383;28;20138;-48
2022/06/13 11:57:12;;;;;;;2.58;2.00;;;36.60;84.60;;;;;;4990348;28;20497;-48
2022/06/13 11:59:49;;;;;;;30.42;3.30;;;;;;;;;;5002785;28;20041;-49
2022/06/13 12:02:22;;;;;;;4.20;3.00;;;37.00;82.40;;;;;;4993765;28;20030;-47
2022/06/13 12:04:48;;;;;;;3.10;2.10;;;36.80;83.80;;;;;;4993364;28;20039;-49
2022/06/13 12:07:22;;;;;;;3.95;2.10;;;;;;;;;;4995902;28;20109;-48
2022/06/13 12:09:53;;;;;;;2.50;2.30;;;;;;;;;;4995903;28;20035;-46
2022/06/13 12:12:19;;;;;;;4.13;1.80;;;36.90;83.20;;;;;;4994513;28;20026;-48
2022/06/13 12:14:45;;;;;;;4.10;2.33;;;36.80;83.60;;;;;;4993176;28;20283;-48
2022/06/13 12:17:37;;;;;;;2.53;2.33;;;36.90;82.00;;;;;;4995546;28;20053;-47
2022/06/13 12:20:32;;;;;;;2.80;2.13;;;37.10;81.40;;;;;;4997575;28;20034;-49
2022/06/13 12:23:07;;;;;;;9.35;2.90;;;37.00;83.70;;;;;;4955897;29;20035;-47
2022/06/13 12:25:47;;;;;;;4.10;2.22;;;36.40;85.60;;;;;;4939808;29;20043;-47
2022/06/13 12:28:21;;;;;;;2.60;2.40;;;36.70;85.40;;;;;;4924186;29;20067;-48
2022/06/13 12:31:00;;;;;;;4.32;2.30;;;36.70;84.30;;;;;;4956071;29;20052;-48
2022/06/13 12:33:44;;;;;;;3.35;2.17;;;36.70;83.30;;;;;;4924321;29;20055;-49
2022/06/13 12:36:27;;;;;;;2.63;2.17;;;36.60;85.20;;;;;;4955946;29;20431;-48
2022/06/13 12:39:18;;;;;;;4.25;2.15;;;36.50;82.30;;;;;;4955813;29;20027;-46
2022/06/13 12:42:25;;;;;;;4.25;2.50;;;36.40;80.90;;;;;;4955897;29;20110;-47
2022/06/13 12:45:29;;;;;;;4.55;2.33;;;35.70;81.40;;;;;;4955829;29;20102;-46
2022/06/13 12:48:10;;;;;;;4.57;2.20;;;35.10;82.20;;;;;;4860702;29;20391;-46
2022/06/13 12:50:44;;;;;;;2.63;2.40;;;35.10;82.10;;;;;;4861291;29;20053;-49
2022/06/13 12:53:18;;;;;;;2.38;2.17;;;35.70;83.20;;;;;;4861425;29;20044;-46
2022/06/13 12:55:59;;;;;;;2.65;2.22;;;35.90;82.20;;;;;;4861363;29;20061;-48
2022/06/13 12:58:33;;;;;;;3.65;2.47;;;35.60;82.30;;;;;;4867276;29;20487;-48
2022/06/13 13:01:27;;;;;;;3.25;2.03;;;35.50;81.30;;;;;;4917411;29;20043;-50
2022/06/13 13:04:14;;;;;;;2.83;2.30;;;35.60;83.00;;;;;;4917538;29;20084;-49
2022/06/13 13:07:01;;;;;;;2.70;2.20;;;36.10;84.60;;;;;;4915343;29;20032;-48
2022/06/13 13:09:30;;;;;;;2.92;2.33;;;;;;;;;;4917274;29;20098;-50
2022/06/13 13:12:13;;;;;;;4.47;2.58;;;36.50;82.90;;;;;;4917435;29;20040;-49
2022/06/13 13:15:05;;;;;;;3.45;2.65;;;36.40;83.60;;;;;;4917121;29;20040;-50
2022/06/13 13:17:42;;;;;;;3.25;2.40;;;36.10;82.50;;;;;;4909843;29;20175;-50
2022/06/13 13:20:20;;;;;;;2.80;2.50;;;36.10;82.10;;;;;;4916631;29;20055;-49
2022/06/13 13:23:00;;;;;;;4.45;2.63;;;35.90;82.20;;;;;;4916828;29;20091;-50
2022/06/13 13:26:19;;;;;;;5.50;2.72;;;35.80;82.70;;;;;;4994205;28;20106;-49
2022/06/13 13:28:53;;;;;;;4.00;2.55;;;36.00;84.20;;;;;;4902026;28;20042;-47
2022/06/13 13:31:24;;;;;;;2.78;2.28;;;35.70;82.40;;;;;;4972306;28;20043;-51
2022/06/13 13:33:50;;;;;;;;;;;35.60;82.50;;;;;;4971418;28;20043;-48
2022/06/13 13:36:58;;;;;;;3.33;2.42;;;35.80;83.70;;;;;;4968650;28;20255;-46
2022/06/13 13:39:47;;;;;;;3.53;2.55;;;35.90;83.60;;;;;;4912510;29;20060;-49
2022/06/13 13:42:25;;;;;;;3.70;2.30;;;36.00;83.00;;;;;;4914693;29;20047;-48
2022/06/13 13:45:03;;;;;;;3.90;2.20;;;36.10;83.00;;;;;;4915085;29;20067;-47
2022/06/13 13:47:34;;;;;;;3.13;2.17;;;36.10;82.20;;;;;;4914393;29;20063;-48
2022/06/13 13:50:16;;;;;;;3.42;2.70;;;35.60;79.60;;;;;;4915213;29;20044;-47
2022/06/13 13:52:46;;;;;;;3.67;2.70;;;36.10;81.80;;;;;;4915681;29;20032;-48
2022/06/13 13:55:34;;;;;;;3.47;2.72;;;36.10;83.70;;;;;;4915656;29;20372;-48
2022/06/13 13:58:15;;;;;;;3.63;2.42;;;35.90;82.20;;;;;;4914976;29;20051;-47